createdAt,value
2018-07-12T00:00:25.355Z,60.27
2018-07-12T00:02:51.946Z,62.03
2018-07-12T00:05:18.566Z,59.30
2018-07-12T00:07:45.118Z,62.50
2018-07-12T00:10:11.669Z,64.80
2018-07-12T00:12:38.170Z,64.70
2018-07-12T00:15:04.718Z,63.87
2018-07-12T00:17:31.198Z,59.27
2018-07-12T00:19:57.719Z,60.17
2018-07-12T00:22:24.213Z,59.40
2018-07-12T00:24:50.744Z,59.27
2018-07-12T00:27:17.229Z,60.83
2018-07-12T00:29:43.744Z,62.50
2018-07-12T00:32:10.232Z,57.13
2018-07-12T00:34:36.773Z,55.67
2018-07-12T00:37:03.255Z,57.73
2018-07-12T00:39:29.813Z,57.43
2018-07-12T00:41:56.794Z,56.27
2018-07-12T00:44:23.290Z,58.87
2018-07-12T00:46:49.799Z,63.77
2018-07-12T00:49:16.306Z,60.50
2018-07-12T00:51:42.897Z,60.40
2018-07-12T00:54:09.394Z,61.10
2018-07-12T00:56:35.969Z,64.73
2018-07-12T00:59:02.933Z,58.73
2018-07-12T01:01:29.959Z,63.10
2018-07-12T01:03:56.701Z,58.97
2018-07-12T01:06:23.206Z,65.80
2018-07-12T01:08:49.699Z,57.83
2018-07-12T01:11:16.230Z,61.73
2018-07-12T01:13:42.723Z,56.37
2018-07-12T01:16:09.269Z,58.40
2018-07-12T01:18:36.233Z,56.00
2018-07-12T01:21:02.741Z,61.07
2018-07-12T01:23:29.499Z,56.10
2018-07-12T01:25:56.481Z,65.53
2018-07-12T01:28:23.065Z,64.53
2018-07-12T01:30:49.587Z,65.27
2018-07-12T01:33:16.081Z,64.17
2018-07-12T01:35:42.678Z,61.10
2018-07-12T01:38:09.154Z,60.10
2018-07-12T01:40:35.836Z,63.87
2018-07-12T01:43:02.329Z,56.87
2018-07-12T01:45:28.849Z,55.90
2018-07-12T01:47:55.370Z,51.07
2018-07-12T01:50:22.325Z,51.17
2018-07-12T01:52:48.826Z,50.67
2018-07-12T01:55:15.300Z,55.63
2018-07-12T01:57:43.712Z,51.27
2018-07-12T02:00:10.450Z,53.10
2018-07-12T02:02:37.004Z,52.90
2018-07-12T02:05:03.516Z,53.20
2018-07-12T02:07:30.062Z,53.03
2018-07-12T02:09:56.541Z,55.57
2018-07-12T02:12:23.529Z,57.67
2018-07-12T02:14:50.022Z,53.13
2018-07-12T02:17:16.596Z,54.00
2018-07-12T02:19:43.090Z,54.17
2018-07-12T02:22:10.085Z,54.03
2018-07-12T02:24:36.609Z,50.73
2018-07-12T02:27:03.187Z,49.50
2018-07-12T02:29:29.670Z,50.67
2018-07-12T02:31:56.207Z,50.97
2018-07-12T02:34:22.728Z,52.57
2018-07-12T02:36:49.267Z,51.87
2018-07-12T02:39:15.821Z,52.00
2018-07-12T02:41:42.652Z,51.93
2018-07-12T02:44:09.217Z,50.07
2018-07-12T02:46:35.774Z,50.37
2018-07-12T02:49:02.727Z,54.33
2018-07-12T02:51:29.737Z,54.60
2018-07-12T02:53:56.479Z,52.30
2018-07-12T02:56:23.020Z,51.30
2018-07-12T02:58:49.557Z,55.30
2018-07-12T03:01:16.036Z,53.43
2018-07-12T03:03:42.561Z,51.47
2018-07-12T03:06:09.512Z,54.73
2018-07-12T03:08:36.034Z,57.03
2018-07-12T03:11:03.037Z,60.43
2018-07-12T03:13:29.702Z,55.57
2018-07-12T03:15:56.238Z,56.60
2018-07-12T03:18:23.203Z,53.63
2018-07-12T03:20:50.202Z,55.33
2018-07-12T03:23:16.702Z,54.50
2018-07-12T03:25:43.235Z,53.93
2018-07-12T03:28:09.771Z,53.60
2018-07-12T03:30:36.266Z,55.40
2018-07-12T03:33:02.909Z,53.63
2018-07-12T03:35:29.876Z,53.63
2018-07-12T03:37:56.430Z,53.23
2018-07-12T03:40:22.912Z,53.43
2018-07-12T03:42:49.453Z,55.63
2018-07-12T03:45:16.097Z,52.73
2018-07-12T03:47:43.248Z,50.23
2018-07-12T03:50:09.821Z,52.03
2018-07-12T03:52:36.348Z,53.47
2018-07-12T03:55:02.832Z,52.60
2018-07-12T03:57:29.383Z,51.57
2018-07-12T03:59:56.332Z,50.30
2018-07-12T04:02:23.324Z,49.83
2018-07-12T04:04:49.805Z,52.60
2018-07-12T04:07:16.339Z,53.93
2018-07-12T04:09:42.831Z,51.57
2018-07-12T04:12:09.353Z,52.10
2018-07-12T04:14:35.838Z,53.73
2018-07-12T04:17:02.370Z,52.67
2018-07-12T04:19:28.860Z,53.00
2018-07-12T04:21:55.385Z,50.17
2018-07-12T04:24:21.916Z,50.17
2018-07-12T04:26:48.465Z,48.47
2018-07-12T04:29:14.949Z,48.53
2018-07-12T04:31:41.496Z,44.83
2018-07-12T04:34:07.984Z,44.23
2018-07-12T04:36:34.477Z,44.03
2018-07-12T04:39:01.012Z,40.17
2018-07-12T04:41:27.493Z,37.20
2018-07-12T04:43:54.001Z,38.20
2018-07-12T04:46:20.494Z,35.37
2018-07-12T04:48:47.715Z,34.83
2018-07-12T04:51:14.266Z,34.23
2018-07-12T04:53:40.786Z,36.17
2018-07-12T04:56:07.332Z,36.07
2018-07-12T04:58:33.851Z,35.63
2018-07-12T05:01:00.372Z,36.50
2018-07-12T05:03:26.869Z,34.30
2018-07-12T05:05:53.866Z,34.93
2018-07-12T05:08:20.433Z,34.97
2018-07-12T05:10:46.965Z,31.67
2018-07-12T05:13:13.445Z,33.17
2018-07-12T05:15:39.988Z,33.07
2018-07-12T05:18:06.496Z,35.13
2018-07-12T05:20:33.107Z,34.17
2018-07-12T05:22:59.669Z,33.30
2018-07-12T05:25:26.170Z,35.10
2018-07-12T05:27:52.723Z,32.83
2018-07-12T05:30:19.805Z,30.20
2018-07-12T05:32:46.333Z,32.23
2018-07-12T05:35:12.816Z,30.83
2018-07-12T05:37:40.321Z,29.47
2018-07-12T05:40:07.869Z,28.57
2018-07-12T05:42:35.341Z,32.13
2018-07-12T05:45:02.963Z,27.90
2018-07-12T05:47:30.469Z,26.90
2018-07-12T05:49:57.997Z,27.23
2018-07-12T05:52:25.558Z,26.03
2018-07-12T05:54:53.108Z,25.20
2018-07-12T05:57:20.791Z,27.20
2018-07-12T05:59:48.523Z,24.90
2018-07-12T06:02:18.745Z,21.27
2018-07-12T06:04:46.670Z,20.70
2018-07-12T06:07:18.845Z,19.33
2018-07-12T06:09:46.812Z,19.50
2018-07-12T06:12:14.542Z,15.70
2018-07-12T06:14:42.074Z,15.57
2018-07-12T06:17:09.646Z,16.03
2018-07-12T06:19:37.190Z,14.47
2018-07-12T06:22:04.898Z,13.73
2018-07-12T06:24:32.494Z,13.60
2018-07-12T06:27:00.172Z,13.67
2018-07-12T06:29:27.768Z,12.73
2018-07-12T06:31:55.290Z,13.20
2018-07-12T06:34:22.930Z,12.20
2018-07-12T06:36:50.585Z,11.47
2018-07-12T06:39:18.271Z,12.07
2018-07-12T06:41:45.815Z,11.73
2018-07-12T06:44:13.360Z,11.50
2018-07-12T06:46:40.943Z,11.20
2018-07-12T06:49:08.505Z,11.23
2018-07-12T06:51:36.121Z,9.57
2018-07-12T06:54:03.761Z,10.07
2018-07-12T06:56:31.350Z,10.27
2018-07-12T06:58:58.904Z,9.93
2018-07-12T07:01:26.493Z,10.07
2018-07-12T07:03:54.256Z,9.17
2018-07-12T07:06:21.873Z,9.40
2018-07-12T07:08:49.390Z,9.33
2018-07-12T07:11:17.056Z,7.33
2018-07-12T07:13:44.661Z,7.13
2018-07-12T07:16:12.370Z,7.13
2018-07-12T07:18:39.924Z,7.53
2018-07-12T07:21:07.517Z,7.70
2018-07-12T07:23:35.086Z,7.50
2018-07-12T07:26:02.697Z,7.50
2018-07-12T07:28:30.294Z,7.20
2018-07-12T07:30:57.973Z,7.53
2018-07-12T07:33:25.546Z,9.67
2018-07-12T07:35:53.112Z,6.63
2018-07-12T07:38:20.630Z,9.37
2018-07-12T07:40:48.166Z,5.70
2018-07-12T07:43:15.785Z,7.43
2018-07-12T07:45:43.334Z,7.73
2018-07-12T07:48:10.919Z,7.87
2018-07-12T07:50:38.448Z,7.57
2018-07-12T07:53:06.048Z,6.97
2018-07-12T07:55:33.604Z,6.87
2018-07-12T07:58:01.206Z,7.40
2018-07-12T08:00:28.754Z,6.90
2018-07-12T08:02:56.367Z,6.33
2018-07-12T08:05:23.929Z,6.13
2018-07-12T08:07:52.146Z,6.90
2018-07-12T08:10:19.844Z,8.67
2018-07-12T08:12:47.397Z,6.50
2018-07-12T08:15:15.065Z,6.70
2018-07-12T08:17:42.982Z,6.50
2018-07-12T08:20:10.523Z,6.27
2018-07-12T08:22:38.098Z,6.47
2018-07-12T08:25:05.752Z,5.80
2018-07-12T08:27:33.349Z,5.93
2018-07-12T08:30:01.008Z,5.50
2018-07-12T08:32:28.495Z,5.20
2018-07-12T08:34:56.102Z,5.23
2018-07-12T08:37:23.760Z,6.47
2018-07-12T08:39:51.388Z,4.63
2018-07-12T08:42:19.003Z,5.13
2018-07-12T08:44:46.641Z,6.10
2018-07-12T08:47:14.180Z,4.67
2018-07-12T08:49:41.864Z,4.83
2018-07-12T08:52:09.462Z,6.37
2018-07-12T08:54:37.097Z,5.33
2018-07-12T08:57:04.729Z,4.50
2018-07-12T08:59:32.309Z,4.40
2018-07-12T09:01:59.898Z,5.23
2018-07-12T09:04:27.464Z,3.83
2018-07-12T09:06:54.982Z,4.77
2018-07-12T09:09:22.553Z,5.13
2018-07-12T09:11:54.822Z,4.13
2018-07-12T09:14:22.426Z,4.53
2018-07-12T09:16:50.172Z,3.53
2018-07-12T09:19:17.738Z,5.53
2018-07-12T09:21:45.325Z,3.57
2018-07-12T09:24:12.913Z,4.83
2018-07-12T09:26:40.469Z,4.00
2018-07-12T09:29:08.397Z,4.27
2018-07-12T09:31:35.995Z,4.63
2018-07-12T09:34:03.600Z,3.93
2018-07-12T09:36:31.271Z,4.10
2018-07-12T09:38:58.829Z,4.17
2018-07-12T09:41:26.436Z,4.40
2018-07-12T09:43:54.006Z,5.47
2018-07-12T09:46:21.630Z,5.43
2018-07-12T09:48:50.337Z,3.50
2018-07-12T09:51:17.889Z,5.23
2018-07-12T09:53:46.441Z,3.83
2018-07-12T09:56:14.962Z,3.50
2018-07-12T09:58:43.182Z,3.67
2018-07-12T10:01:16.551Z,3.80
2018-07-12T10:03:53.084Z,4.83
2018-07-12T10:06:31.386Z,4.43
2018-07-12T10:09:04.708Z,5.03
2018-07-12T10:11:37.968Z,4.20
2018-07-12T10:14:11.434Z,4.00
2018-07-12T10:16:44.384Z,4.50
2018-07-12T10:19:11.974Z,4.40
2018-07-12T10:21:39.488Z,3.57
2018-07-12T10:24:07.156Z,6.90
2018-07-12T10:26:34.725Z,3.90
2018-07-12T10:29:02.349Z,3.40
2018-07-12T10:31:29.923Z,4.30
2018-07-12T10:33:57.515Z,3.80
2018-07-12T10:36:25.074Z,3.23
2018-07-12T10:38:52.768Z,3.00
2018-07-12T10:41:20.350Z,3.43
2018-07-12T10:43:47.960Z,3.27
2018-07-12T10:46:16.073Z,4.50
2018-07-12T10:48:43.656Z,4.27
2018-07-12T10:51:11.245Z,3.40
2018-07-12T10:53:38.807Z,5.20
2018-07-12T10:56:06.443Z,3.60
2018-07-12T10:58:34.060Z,3.30
2018-07-12T11:01:01.614Z,3.13
2018-07-12T11:03:29.242Z,3.10
2018-07-12T11:05:56.846Z,3.70
2018-07-12T11:08:24.416Z,3.67
2018-07-12T11:10:52.014Z,3.53
2018-07-12T11:13:29.926Z,3.47
2018-07-12T11:15:57.442Z,3.13
2018-07-12T11:18:25.105Z,3.80
2018-07-12T11:20:52.648Z,3.20
2018-07-12T11:23:20.233Z,3.10
2018-07-12T11:25:47.773Z,4.33
2018-07-12T11:28:15.385Z,3.47
2018-07-12T11:30:43.027Z,5.30
2018-07-12T11:33:22.137Z,4.80
2018-07-12T11:35:49.734Z,3.70
2018-07-12T11:38:17.299Z,3.83
2018-07-12T11:40:44.969Z,4.23
2018-07-12T11:43:12.515Z,3.93
2018-07-12T11:45:40.042Z,4.00
2018-07-12T11:48:07.617Z,4.73
2018-07-12T11:50:35.148Z,4.07
2018-07-12T11:53:02.750Z,4.13
2018-07-12T11:55:30.328Z,4.60
2018-07-12T11:57:57.836Z,5.17
2018-07-12T12:00:25.446Z,4.80
2018-07-12T12:02:52.969Z,4.37
2018-07-12T12:05:20.730Z,4.87
2018-07-12T12:07:48.290Z,5.13
2018-07-12T12:10:15.893Z,4.57
2018-07-12T12:12:43.435Z,4.77
2018-07-12T12:15:11.023Z,6.27
2018-07-12T12:17:38.614Z,4.43
2018-07-12T12:20:06.169Z,4.27
2018-07-12T12:22:33.753Z,5.30
2018-07-12T12:25:01.314Z,5.20
2018-07-12T12:27:28.901Z,3.60
2018-07-12T12:29:56.513Z,4.70
2018-07-12T12:32:24.099Z,3.80
2018-07-12T12:34:51.665Z,4.30
2018-07-12T12:37:19.386Z,4.60
2018-07-12T12:39:46.949Z,5.90
2018-07-12T12:42:14.546Z,3.87
2018-07-12T12:44:42.090Z,5.73
2018-07-12T12:47:09.691Z,4.80
2018-07-12T12:49:37.322Z,3.50
2018-07-12T12:52:05.010Z,4.10
2018-07-12T12:54:32.567Z,3.80
2018-07-12T12:57:00.143Z,4.20
2018-07-12T12:59:27.674Z,4.00
2018-07-12T13:01:55.288Z,4.13
2018-07-12T13:04:22.830Z,4.00
2018-07-12T13:06:50.461Z,3.77
2018-07-12T13:09:17.979Z,4.23
2018-07-12T13:11:45.548Z,3.97
2018-07-12T13:14:13.285Z,3.80
2018-07-12T13:16:40.808Z,3.90
2018-07-12T13:19:08.425Z,4.10
2018-07-12T13:21:35.962Z,4.20
2018-07-12T13:24:03.605Z,4.07
2018-07-12T13:26:31.138Z,4.57
2018-07-12T13:28:58.681Z,4.30
2018-07-12T13:31:26.294Z,4.63
2018-07-12T13:33:53.875Z,4.50
2018-07-12T13:36:21.476Z,4.63
2018-07-12T13:38:49.076Z,3.83
2018-07-12T13:41:16.672Z,4.60
2018-07-12T13:43:44.205Z,4.60
2018-07-12T13:46:11.811Z,4.07
2018-07-12T13:48:39.361Z,4.10
2018-07-12T13:51:06.993Z,4.20
2018-07-12T13:53:34.656Z,3.83
2018-07-12T13:56:02.180Z,3.93
2018-07-12T13:58:29.821Z,3.57
2018-07-12T14:00:57.397Z,4.23
2018-07-12T14:03:24.999Z,4.03
2018-07-12T14:05:52.543Z,5.30
2018-07-12T14:08:20.315Z,4.57
2018-07-12T14:10:47.909Z,4.10
2018-07-12T14:13:15.430Z,3.90
2018-07-12T14:15:43.038Z,3.83
2018-07-12T14:18:10.568Z,3.90
2018-07-12T14:20:38.157Z,4.20
2018-07-12T14:23:05.789Z,4.00
2018-07-12T14:25:33.323Z,3.70
2018-07-12T14:28:00.916Z,4.10
2018-07-12T14:30:28.491Z,3.50
2018-07-12T14:32:56.006Z,4.13
2018-07-12T14:35:23.572Z,4.00
2018-07-12T14:37:51.243Z,4.20
2018-07-12T14:40:18.989Z,3.50
2018-07-12T14:42:46.558Z,3.50
2018-07-12T14:45:14.170Z,4.53
2018-07-12T14:47:41.750Z,3.67
2018-07-12T14:50:09.347Z,3.53
2018-07-12T14:52:36.966Z,3.97
2018-07-12T14:55:04.501Z,3.70
2018-07-12T14:57:32.208Z,3.60
2018-07-12T14:59:59.728Z,4.40
2018-07-12T15:02:27.428Z,3.43
2018-07-12T15:04:54.961Z,3.40
2018-07-12T15:07:22.548Z,4.57
2018-07-12T15:09:50.223Z,3.70
2018-07-12T15:12:17.817Z,3.00
2018-07-12T15:14:45.363Z,3.63
2018-07-12T15:17:12.986Z,3.43
2018-07-12T15:19:40.510Z,3.60
2018-07-12T15:22:08.206Z,3.73
2018-07-12T15:24:35.743Z,3.23
2018-07-12T15:27:03.373Z,2.80
2018-07-12T15:29:30.981Z,3.33
2018-07-12T15:31:58.477Z,2.70
2018-07-12T15:34:26.050Z,3.37
2018-07-12T15:36:53.603Z,3.60
2018-07-12T15:39:21.245Z,2.90
2018-07-12T15:41:48.775Z,3.30
2018-07-12T15:44:16.381Z,2.83
2018-07-12T15:46:43.999Z,3.00
2018-07-12T15:49:11.634Z,3.10
2018-07-12T15:51:39.187Z,3.80
2018-07-12T15:54:06.744Z,4.30
2018-07-12T15:56:34.340Z,4.47
2018-07-12T15:59:02.023Z,4.83
2018-07-12T16:01:29.658Z,5.50
2018-07-12T16:03:57.238Z,4.83
2018-07-12T16:06:24.813Z,5.30
2018-07-12T16:08:52.540Z,5.23
2018-07-12T16:11:20.095Z,5.20
2018-07-12T16:13:47.976Z,5.87
2018-07-12T16:16:15.930Z,5.00
2018-07-12T16:18:44.960Z,5.07
2018-07-12T16:21:12.855Z,5.20
2018-07-12T16:23:40.469Z,5.40
2018-07-12T16:26:08.106Z,5.50
2018-07-12T16:28:35.696Z,5.23
2018-07-12T16:31:03.305Z,5.03
2018-07-12T16:33:30.841Z,4.90
2018-07-12T16:35:58.500Z,5.07
2018-07-12T16:38:26.250Z,4.73
2018-07-12T16:40:53.827Z,4.80
2018-07-12T16:43:21.550Z,5.17
2018-07-12T16:45:49.097Z,9.97
2018-07-12T16:48:16.692Z,5.60
2018-07-12T16:50:45.238Z,6.37
2018-07-12T16:53:13.018Z,5.20
2018-07-12T16:55:40.548Z,5.27
2018-07-12T16:58:08.092Z,5.73
2018-07-12T17:00:35.754Z,5.80
2018-07-12T17:03:03.319Z,5.40
2018-07-12T17:05:30.918Z,4.77
2018-07-12T17:07:58.474Z,5.30
2018-07-12T17:10:26.056Z,4.97
2018-07-12T17:12:53.690Z,4.70
2018-07-12T17:15:21.254Z,5.17
2018-07-12T17:17:48.860Z,4.40
2018-07-12T17:20:18.608Z,3.90
2018-07-12T17:22:46.232Z,4.30
2018-07-12T17:25:13.819Z,4.27
2018-07-12T17:27:41.591Z,4.67
2018-07-12T17:30:12.275Z,4.70
2018-07-12T17:32:39.838Z,4.77
2018-07-12T17:35:07.442Z,4.07
2018-07-12T17:37:34.973Z,3.93
2018-07-12T17:40:02.564Z,3.60
2018-07-12T17:42:30.204Z,4.30
2018-07-12T17:44:57.753Z,4.00
2018-07-12T17:47:25.350Z,4.00
2018-07-12T17:49:53.006Z,4.23
2018-07-12T17:52:20.613Z,3.73
2018-07-12T17:54:48.172Z,4.83
2018-07-12T17:57:15.750Z,3.83
2018-07-12T17:59:43.334Z,3.70
2018-07-12T18:02:10.915Z,5.27
2018-07-12T18:04:38.553Z,4.20
2018-07-12T18:07:06.154Z,4.70
2018-07-12T18:09:33.712Z,4.70
2018-07-12T18:12:01.317Z,4.60
2018-07-12T18:14:28.881Z,3.80
2018-07-12T18:16:56.452Z,4.37
2018-07-12T18:19:24.486Z,3.70
2018-07-12T18:21:52.118Z,4.73
2018-07-12T18:24:19.622Z,3.97
2018-07-12T18:26:47.229Z,3.97
2018-07-12T18:29:14.784Z,4.10
2018-07-12T18:31:42.300Z,5.40
2018-07-12T18:34:09.873Z,4.47
2018-07-12T18:36:37.406Z,3.97
2018-07-12T18:39:06.684Z,4.10
2018-07-12T18:41:34.262Z,4.10
2018-07-12T18:44:01.832Z,4.47
2018-07-12T18:46:29.429Z,4.00
2018-07-12T18:48:57.094Z,4.00
2018-07-12T18:51:24.641Z,4.10
2018-07-12T18:53:52.291Z,4.37
2018-07-12T18:56:19.862Z,4.67
2018-07-12T18:58:47.521Z,4.27
2018-07-12T19:01:15.051Z,4.67
2018-07-12T19:03:42.668Z,4.33
2018-07-12T19:06:10.178Z,4.30
2018-07-12T19:08:37.789Z,4.13
2018-07-12T19:11:05.373Z,4.40
2018-07-12T19:13:32.966Z,4.60
2018-07-12T19:16:00.509Z,5.00
2018-07-12T19:18:28.354Z,4.80
2018-07-12T19:20:55.954Z,5.17
2018-07-12T19:23:23.569Z,5.27
2018-07-12T19:25:51.120Z,5.27
2018-07-12T19:28:18.694Z,5.10
2018-07-12T19:30:46.249Z,4.67
2018-07-12T19:33:13.833Z,5.20
2018-07-12T19:35:41.370Z,7.73
2018-07-12T19:38:08.955Z,7.40
2018-07-12T19:40:36.505Z,6.00
2018-07-12T19:43:04.122Z,4.83
2018-07-12T19:45:31.674Z,5.60
2018-07-12T19:47:59.185Z,5.40
2018-07-12T19:50:26.792Z,5.17
2018-07-12T19:52:54.405Z,4.97
2018-07-12T19:55:21.967Z,5.47
2018-07-12T19:57:49.641Z,5.23
2018-07-12T20:00:17.372Z,5.50
2018-07-12T20:02:44.937Z,5.83
2018-07-12T20:05:12.470Z,6.83
2018-07-12T20:07:40.182Z,6.00
2018-07-12T20:10:07.817Z,5.80
2018-07-12T20:12:35.417Z,6.33
2018-07-12T20:15:03.091Z,6.33
2018-07-12T20:17:30.743Z,6.00
2018-07-12T20:19:58.349Z,5.93
2018-07-12T20:22:25.908Z,6.30
2018-07-12T20:24:53.501Z,5.20
2018-07-12T20:27:21.035Z,6.50
2018-07-12T20:29:48.632Z,5.73
2018-07-12T20:32:16.491Z,5.87
2018-07-12T20:34:44.036Z,6.20
2018-07-12T20:37:11.747Z,6.17
2018-07-12T20:39:43.879Z,5.90
2018-07-12T20:42:11.469Z,7.37
2018-07-12T20:44:39.032Z,7.00
2018-07-12T20:47:06.655Z,6.17
2018-07-12T20:49:34.250Z,6.27
2018-07-12T20:52:01.899Z,5.93
2018-07-12T20:54:29.481Z,6.03
2018-07-12T20:56:57.093Z,5.63
2018-07-12T20:59:24.757Z,5.90
2018-07-12T21:01:52.437Z,5.70
2018-07-12T21:04:19.991Z,6.00
2018-07-12T21:06:47.526Z,6.00
2018-07-12T21:09:15.119Z,6.73
2018-07-12T21:11:42.653Z,6.00
2018-07-12T21:14:10.236Z,6.03
2018-07-12T21:16:37.842Z,6.07
2018-07-12T21:19:05.584Z,6.00
2018-07-12T21:21:33.125Z,6.00
2018-07-12T21:24:00.744Z,5.87
2018-07-12T21:26:28.416Z,6.47
2018-07-12T21:28:55.965Z,5.90
2018-07-12T21:31:23.495Z,5.83
2018-07-12T21:33:51.109Z,5.60
2018-07-12T21:36:18.699Z,5.70
2018-07-12T21:38:46.243Z,5.80
2018-07-12T21:41:13.818Z,6.57
2018-07-12T21:43:41.431Z,5.60
2018-07-12T21:46:09.006Z,6.50
2018-07-12T21:48:36.589Z,6.20
2018-07-12T21:51:04.145Z,5.53
2018-07-12T21:53:31.732Z,5.90
2018-07-12T21:55:59.289Z,5.83
2018-07-12T21:58:26.851Z,6.73
2018-07-12T22:00:54.447Z,5.93
2018-07-12T22:03:22.026Z,7.27
2018-07-12T22:05:49.591Z,7.23
2018-07-12T22:08:22.141Z,7.37
2018-07-12T22:10:51.131Z,7.00
2018-07-12T22:13:19.348Z,8.00
2018-07-12T22:15:46.877Z,7.07
2018-07-12T22:18:14.508Z,6.53
2018-07-12T22:20:42.116Z,6.83
2018-07-12T22:23:09.702Z,7.20
2018-07-12T22:25:37.564Z,7.10
2018-07-12T22:28:05.272Z,7.87
2018-07-12T22:30:32.873Z,7.33
2018-07-12T22:33:01.612Z,7.10
2018-07-12T22:35:29.141Z,7.53
2018-07-12T22:37:57.801Z,8.00
2018-07-12T22:40:25.465Z,7.53
2018-07-12T22:42:52.995Z,8.47
2018-07-12T22:45:20.681Z,8.77
2018-07-12T22:47:48.303Z,8.83
2018-07-12T22:50:16.213Z,8.67
2018-07-12T22:52:43.829Z,8.07
2018-07-12T22:55:13.369Z,9.37
2018-07-12T22:57:40.922Z,9.10
2018-07-12T23:00:09.272Z,9.83
2018-07-12T23:02:38.737Z,10.10
2018-07-12T23:05:06.649Z,9.57
2018-07-12T23:07:34.265Z,11.10
2018-07-12T23:10:01.857Z,11.33
2018-07-12T23:12:29.510Z,10.70
2018-07-12T23:14:57.076Z,12.50
2018-07-12T23:17:24.673Z,12.27
2018-07-12T23:19:52.276Z,12.07
2018-07-12T23:22:20.279Z,12.20
2018-07-12T23:24:47.974Z,13.00
2018-07-12T23:27:15.529Z,11.97
2018-07-12T23:29:43.066Z,14.10
2018-07-12T23:32:10.598Z,12.03
2018-07-12T23:34:38.246Z,13.60
2018-07-12T23:37:05.897Z,15.13
2018-07-12T23:39:33.609Z,14.53
2018-07-12T23:42:01.255Z,14.97
2018-07-12T23:44:28.804Z,16.43
2018-07-12T23:46:56.397Z,15.87
2018-07-12T23:49:23.919Z,16.13
2018-07-12T23:51:51.530Z,16.60
2018-07-12T23:54:19.058Z,16.50
2018-07-12T23:56:46.715Z,17.23
2018-07-12T23:59:14.578Z,17.10
